sensor_id;sensor_type;location;lat;lon;timestamp;temperature;humidity
20803;DHT22;10562;-33.856;151.182;2023-03-21T00:01:59;22.00;99.90
20803;DHT22;10562;-33.856;151.182;2023-03-21T00:04:29;22.00;99.90
20803;DHT22;10562;-33.856;151.182;2023-03-21T00:07:00;22.00;99.90
20803;DHT22;10562;-33.856;151.182;2023-03-21T00:09:31;22.10;99.90
20803;DHT22;10562;-33.856;151.182;2023-03-21T00:12:02;22.20;99.90
20803;DHT22;10562;-33.856;151.182;2023-03-21T00:14:38;22.30;99.90
20803;DHT22;10562;-33.856;151.182;2023-03-21T00:17:09;22.50;99.90
20803;DHT22;10562;-33.856;151.182;2023-03-21T00:19:39;22.60;99.90
20803;DHT22;10562;-33.856;151.182;2023-03-21T00:22:11;22.70;99.90
20803;DHT22;10562;-33.856;151.182;2023-03-21T00:24:42;22.70;99.90
20803;DHT22;10562;-33.856;151.182;2023-03-21T00:27:13;22.70;99.90
20803;DHT22;10562;-33.856;151.182;2023-03-21T00:29:45;22.80;99.90
20803;DHT22;10562;-33.856;151.182;2023-03-21T00:32:18;22.70;99.90
20803;DHT22;10562;-33.856;151.182;2023-03-21T00:34:49;22.80;99.90
20803;DHT22;10562;-33.856;151.182;2023-03-21T00:37:20;22.80;99.90
20803;DHT22;10562;-33.856;151.182;2023-03-21T00:39:50;22.80;99.90
20803;DHT22;10562;-33.856;151.182;2023-03-21T00:42:21;22.90;99.90
20803;DHT22;10562;-33.856;151.182;2023-03-21T00:44:55;22.90;99.90
20803;DHT22;10562;-33.856;151.182;2023-03-21T00:47:25;22.90;99.90
20803;DHT22;10562;-33.856;151.182;2023-03-21T00:49:56;23.00;99.90
20803;DHT22;10562;-33.856;151.182;2023-03-21T00:52:27;23.10;99.90
20803;DHT22;10562;-33.856;151.182;2023-03-21T00:54:57;23.30;99.90
20803;DHT22;10562;-33.856;151.182;2023-03-21T00:57:29;23.30;99.90
20803;DHT22;10562;-33.856;151.182;2023-03-21T01:00:01;23.50;99.90
20803;DHT22;10562;-33.856;151.182;2023-03-21T01:02:34;23.60;99.90
20803;DHT22;10562;-33.856;151.182;2023-03-21T01:05:05;23.80;99.90
20803;DHT22;10562;-33.856;151.182;2023-03-21T01:07:36;23.70;99.90
20803;DHT22;10562;-33.856;151.182;2023-03-21T01:10:09;23.60;99.90
20803;DHT22;10562;-33.856;151.182;2023-03-21T01:12:40;23.70;99.90
20803;DHT22;10562;-33.856;151.182;2023-03-21T01:15:12;23.80;99.90
20803;DHT22;10562;-33.856;151.182;2023-03-21T01:17:43;23.90;99.90
20803;DHT22;10562;-33.856;151.182;2023-03-21T01:20:14;24.10;99.90
20803;DHT22;10562;-33.856;151.182;2023-03-21T01:22:45;24.10;99.90
20803;DHT22;10562;-33.856;151.182;2023-03-21T01:25:15;24.10;99.90
20803;DHT22;10562;-33.856;151.182;2023-03-21T01:27:46;24.10;99.90
20803;DHT22;10562;-33.856;151.182;2023-03-21T01:30:19;24.10;99.90
20803;DHT22;10562;-33.856;151.182;2023-03-21T01:32:50;24.10;99.90
20803;DHT22;10562;-33.856;151.182;2023-03-21T01:35:21;23.80;99.90
20803;DHT22;10562;-33.856;151.182;2023-03-21T01:37:52;23.70;99.90
20803;DHT22;10562;-33.856;151.182;2023-03-21T01:40:24;23.60;99.90
20803;DHT22;10562;-33.856;151.182;2023-03-21T01:42:55;23.40;99.90
20803;DHT22;10562;-33.856;151.182;2023-03-21T01:48:53;23.50;99.90
20803;DHT22;10562;-33.856;151.182;2023-03-21T01:51:25;23.40;99.90
20803;DHT22;10562;-33.856;151.182;2023-03-21T01:53:56;23.50;99.90
20803;DHT22;10562;-33.856;151.182;2023-03-21T01:56:30;23.60;99.90
20803;DHT22;10562;-33.856;151.182;2023-03-21T01:59:04;23.60;99.90
20803;DHT22;10562;-33.856;151.182;2023-03-21T02:01:39;23.80;99.90
20803;DHT22;10562;-33.856;151.182;2023-03-21T02:04:13;23.90;99.90
20803;DHT22;10562;-33.856;151.182;2023-03-21T02:06:53;23.80;99.90
20803;DHT22;10562;-33.856;151.182;2023-03-21T02:09:29;23.80;99.90
20803;DHT22;10562;-33.856;151.182;2023-03-21T02:12:02;23.80;99.90
20803;DHT22;10562;-33.856;151.182;2023-03-21T02:14:34;23.90;99.90
20803;DHT22;10562;-33.856;151.182;2023-03-21T02:17:11;24.00;99.90
20803;DHT22;10562;-33.856;151.182;2023-03-21T02:20:08;24.10;99.90
20803;DHT22;10562;-33.856;151.182;2023-03-21T02:23:13;24.30;99.90
20803;DHT22;10562;-33.856;151.182;2023-03-21T02:29:20;24.20;99.90
20803;DHT22;10562;-33.856;151.182;2023-03-21T02:32:03;24.10;99.90
20803;DHT22;10562;-33.856;151.182;2023-03-21T02:35:04;23.90;99.90
20803;DHT22;10562;-33.856;151.182;2023-03-21T02:37:42;23.90;99.90
20803;DHT22;10562;-33.856;151.182;2023-03-21T02:40:19;23.80;99.90
20803;DHT22;10562;-33.856;151.182;2023-03-21T02:42:57;23.90;99.90
20803;DHT22;10562;-33.856;151.182;2023-03-21T02:45:37;23.80;99.90
20803;DHT22;10562;-33.856;151.182;2023-03-21T02:48:11;23.70;99.90
20803;DHT22;10562;-33.856;151.182;2023-03-21T02:50:45;23.80;99.90
20803;DHT22;10562;-33.856;151.182;2023-03-21T02:53:21;23.90;99.90
20803;DHT22;10562;-33.856;151.182;2023-03-21T02:55:53;24.00;99.90
20803;DHT22;10562;-33.856;151.182;2023-03-21T02:58:25;24.10;99.90
20803;DHT22;10562;-33.856;151.182;2023-03-21T03:00:57;24.20;99.90
20803;DHT22;10562;-33.856;151.182;2023-03-21T03:03:28;24.30;99.90
20803;DHT22;10562;-33.856;151.182;2023-03-21T03:06:01;24.50;99.90
20803;DHT22;10562;-33.856;151.182;2023-03-21T03:08:40;24.70;99.90
20803;DHT22;10562;-33.856;151.182;2023-03-21T03:11:23;24.80;99.90
20803;DHT22;10562;-33.856;151.182;2023-03-21T03:14:05;24.70;99.90
20803;DHT22;10562;-33.856;151.182;2023-03-21T03:16:42;24.60;99.90
20803;DHT22;10562;-33.856;151.182;2023-03-21T03:19:20;24.60;99.90
20803;DHT22;10562;-33.856;151.182;2023-03-21T03:21:57;25.00;99.90
20803;DHT22;10562;-33.856;151.182;2023-03-21T03:24:36;25.30;99.90
20803;DHT22;10562;-33.856;151.182;2023-03-21T03:27:09;25.30;99.90
20803;DHT22;10562;-33.856;151.182;2023-03-21T03:29:43;25.20;99.90
20803;DHT22;10562;-33.856;151.182;2023-03-21T03:32:17;25.00;99.90
20803;DHT22;10562;-33.856;151.182;2023-03-21T03:34:50;25.00;99.90
20803;DHT22;10562;-33.856;151.182;2023-03-21T03:37:26;25.00;99.90
20803;DHT22;10562;-33.856;151.182;2023-03-21T03:40:03;24.70;99.90
20803;DHT22;10562;-33.856;151.182;2023-03-21T03:42:36;24.60;99.90
20803;DHT22;10562;-33.856;151.182;2023-03-21T03:45:10;24.60;99.90
20803;DHT22;10562;-33.856;151.182;2023-03-21T03:47:43;24.50;99.90
20803;DHT22;10562;-33.856;151.182;2023-03-21T03:50:19;24.60;99.90
20803;DHT22;10562;-33.856;151.182;2023-03-21T03:52:54;24.30;99.90
20803;DHT22;10562;-33.856;151.182;2023-03-21T03:55:28;24.30;99.90
20803;DHT22;10562;-33.856;151.182;2023-03-21T03:58:01;24.40;99.90
20803;DHT22;10562;-33.856;151.182;2023-03-21T04:00:33;24.30;99.90
20803;DHT22;10562;-33.856;151.182;2023-03-21T04:03:04;24.20;99.90
20803;DHT22;10562;-33.856;151.182;2023-03-21T04:05:36;24.20;99.90
20803;DHT22;10562;-33.856;151.182;2023-03-21T04:08:08;24.10;99.90
20803;DHT22;10562;-33.856;151.182;2023-03-21T04:10:43;24.20;99.90
20803;DHT22;10562;-33.856;151.182;2023-03-21T04:13:14;24.10;99.90
20803;DHT22;10562;-33.856;151.182;2023-03-21T04:15:45;24.10;99.90
20803;DHT22;10562;-33.856;151.182;2023-03-21T04:18:16;24.00;99.90
20803;DHT22;10562;-33.856;151.182;2023-03-21T04:20:49;23.80;99.90
20803;DHT22;10562;-33.856;151.182;2023-03-21T04:23:20;23.90;99.90
20803;DHT22;10562;-33.856;151.182;2023-03-21T04:25:53;23.50;99.90
20803;DHT22;10562;-33.856;151.182;2023-03-21T04:28:24;23.40;99.90
20803;DHT22;10562;-33.856;151.182;2023-03-21T04:30:54;23.40;99.90
20803;DHT22;10562;-33.856;151.182;2023-03-21T04:33:26;23.40;99.90
20803;DHT22;10562;-33.856;151.182;2023-03-21T04:35:57;23.40;99.90
20803;DHT22;10562;-33.856;151.182;2023-03-21T04:38:30;23.30;99.90
20803;DHT22;10562;-33.856;151.182;2023-03-21T04:41:02;23.30;99.90
20803;DHT22;10562;-33.856;151.182;2023-03-21T04:43:33;23.40;99.90
20803;DHT22;10562;-33.856;151.182;2023-03-21T04:46:04;23.40;99.90
20803;DHT22;10562;-33.856;151.182;2023-03-21T04:48:35;23.30;99.90
20803;DHT22;10562;-33.856;151.182;2023-03-21T04:51:06;23.40;99.90
20803;DHT22;10562;-33.856;151.182;2023-03-21T04:53:37;23.40;99.90
20803;DHT22;10562;-33.856;151.182;2023-03-21T04:56:16;23.30;99.90
20803;DHT22;10562;-33.856;151.182;2023-03-21T04:58:47;23.20;99.90
20803;DHT22;10562;-33.856;151.182;2023-03-21T05:01:18;23.20;99.90
20803;DHT22;10562;-33.856;151.182;2023-03-21T05:03:48;23.20;99.90
20803;DHT22;10562;-33.856;151.182;2023-03-21T05:06:19;23.30;99.90
20803;DHT22;10562;-33.856;151.182;2023-03-21T05:08:50;23.20;99.90
20803;DHT22;10562;-33.856;151.182;2023-03-21T05:11:23;23.20;99.90
20803;DHT22;10562;-33.856;151.182;2023-03-21T05:13:54;23.20;99.90
20803;DHT22;10562;-33.856;151.182;2023-03-21T05:16:24;22.90;99.90
20803;DHT22;10562;-33.856;151.182;2023-03-21T05:18:57;22.80;99.90
20803;DHT22;10562;-33.856;151.182;2023-03-21T05:21:31;22.70;99.90
20803;DHT22;10562;-33.856;151.182;2023-03-21T05:24:08;22.60;99.90
20803;DHT22;10562;-33.856;151.182;2023-03-21T05:26:44;22.60;99.90
20803;DHT22;10562;-33.856;151.182;2023-03-21T05:29:19;22.40;99.90
20803;DHT22;10562;-33.856;151.182;2023-03-21T05:31:50;22.50;99.90
20803;DHT22;10562;-33.856;151.182;2023-03-21T05:34:21;22.50;99.90
20803;DHT22;10562;-33.856;151.182;2023-03-21T05:36:52;22.50;99.90
20803;DHT22;10562;-33.856;151.182;2023-03-21T05:39:23;22.40;99.90
20803;DHT22;10562;-33.856;151.182;2023-03-21T05:41:55;22.40;99.90
20803;DHT22;10562;-33.856;151.182;2023-03-21T05:44:29;22.40;99.90
20803;DHT22;10562;-33.856;151.182;2023-03-21T05:47:00;22.30;99.90
20803;DHT22;10562;-33.856;151.182;2023-03-21T05:49:32;22.30;99.90
20803;DHT22;10562;-33.856;151.182;2023-03-21T05:52:03;22.30;99.90
20803;DHT22;10562;-33.856;151.182;2023-03-21T05:54:34;22.30;99.90
20803;DHT22;10562;-33.856;151.182;2023-03-21T05:57:10;22.20;99.90
20803;DHT22;10562;-33.856;151.182;2023-03-21T05:59:40;22.30;99.90
20803;DHT22;10562;-33.856;151.182;2023-03-21T06:02:11;22.20;99.90
20803;DHT22;10562;-33.856;151.182;2023-03-21T06:04:42;22.20;99.90
20803;DHT22;10562;-33.856;151.182;2023-03-21T06:07:13;22.20;99.90
20803;DHT22;10562;-33.856;151.182;2023-03-21T06:09:44;22.20;99.90
20803;DHT22;10562;-33.856;151.182;2023-03-21T06:12:17;22.20;99.90
20803;DHT22;10562;-33.856;151.182;2023-03-21T06:14:48;22.30;99.90
20803;DHT22;10562;-33.856;151.182;2023-03-21T06:17:18;22.20;99.90
20803;DHT22;10562;-33.856;151.182;2023-03-21T06:19:49;22.20;99.90
20803;DHT22;10562;-33.856;151.182;2023-03-21T06:22:20;22.10;99.90
20803;DHT22;10562;-33.856;151.182;2023-03-21T06:24:51;22.10;99.90
20803;DHT22;10562;-33.856;151.182;2023-03-21T06:27:24;22.00;99.90
20803;DHT22;10562;-33.856;151.182;2023-03-21T06:29:55;22.00;99.90
20803;DHT22;10562;-33.856;151.182;2023-03-21T06:32:26;22.00;99.90
20803;DHT22;10562;-33.856;151.182;2023-03-21T06:34:57;21.90;99.90
20803;DHT22;10562;-33.856;151.182;2023-03-21T06:37:28;21.90;99.90
20803;DHT22;10562;-33.856;151.182;2023-03-21T06:39:59;21.90;99.90
20803;DHT22;10562;-33.856;151.182;2023-03-21T06:42:33;21.80;99.90
20803;DHT22;10562;-33.856;151.182;2023-03-21T06:45:05;21.80;99.90
20803;DHT22;10562;-33.856;151.182;2023-03-21T06:47:36;21.90;99.90
20803;DHT22;10562;-33.856;151.182;2023-03-21T06:50:07;21.90;99.90
20803;DHT22;10562;-33.856;151.182;2023-03-21T06:52:38;21.90;99.90
20803;DHT22;10562;-33.856;151.182;2023-03-21T06:55:10;21.80;99.90
20803;DHT22;10562;-33.856;151.182;2023-03-21T06:57:43;21.80;99.90
20803;DHT22;10562;-33.856;151.182;2023-03-21T07:00:14;21.70;99.90
20803;DHT22;10562;-33.856;151.182;2023-03-21T07:02:45;21.70;99.90
20803;DHT22;10562;-33.856;151.182;2023-03-21T07:05:17;21.60;99.90
20803;DHT22;10562;-33.856;151.182;2023-03-21T07:07:48;21.60;99.90
20803;DHT22;10562;-33.856;151.182;2023-03-21T07:10:19;21.60;99.90
20803;DHT22;10562;-33.856;151.182;2023-03-21T07:12:51;21.50;99.90
20803;DHT22;10562;-33.856;151.182;2023-03-21T07:15:22;21.40;99.90
20803;DHT22;10562;-33.856;151.182;2023-03-21T07:17:53;21.40;99.90
20803;DHT22;10562;-33.856;151.182;2023-03-21T07:20:24;21.30;99.90
20803;DHT22;10562;-33.856;151.182;2023-03-21T07:22:55;21.30;99.90
20803;DHT22;10562;-33.856;151.182;2023-03-21T07:25:26;21.30;99.90
20803;DHT22;10562;-33.856;151.182;2023-03-21T07:27:59;21.30;99.90
20803;DHT22;10562;-33.856;151.182;2023-03-21T07:30:30;21.30;99.90
20803;DHT22;10562;-33.856;151.182;2023-03-21T07:33:01;21.30;99.90
20803;DHT22;10562;-33.856;151.182;2023-03-21T07:35:32;21.40;99.90
20803;DHT22;10562;-33.856;151.182;2023-03-21T07:38:04;21.30;99.90
20803;DHT22;10562;-33.856;151.182;2023-03-21T07:40:34;21.40;99.90
20803;DHT22;10562;-33.856;151.182;2023-03-21T07:43:07;21.30;99.90
20803;DHT22;10562;-33.856;151.182;2023-03-21T07:45:38;21.30;99.90
20803;DHT22;10562;-33.856;151.182;2023-03-21T07:48:09;21.20;99.90
20803;DHT22;10562;-33.856;151.182;2023-03-21T07:50:41;21.20;99.90
20803;DHT22;10562;-33.856;151.182;2023-03-21T07:53:14;21.00;99.90
20803;DHT22;10562;-33.856;151.182;2023-03-21T07:55:44;20.90;99.90
20803;DHT22;10562;-33.856;151.182;2023-03-21T07:58:20;20.70;99.90
20803;DHT22;10562;-33.856;151.182;2023-03-21T08:00:51;20.70;99.90
20803;DHT22;10562;-33.856;151.182;2023-03-21T08:03:23;20.70;99.90
20803;DHT22;10562;-33.856;151.182;2023-03-21T08:05:57;20.70;99.90
20803;DHT22;10562;-33.856;151.182;2023-03-21T08:08:28;20.70;99.90
20803;DHT22;10562;-33.856;151.182;2023-03-21T08:10:59;20.70;99.90
20803;DHT22;10562;-33.856;151.182;2023-03-21T08:13:32;20.70;99.90
20803;DHT22;10562;-33.856;151.182;2023-03-21T08:16:03;20.70;99.90
20803;DHT22;10562;-33.856;151.182;2023-03-21T08:18:34;20.70;99.90
20803;DHT22;10562;-33.856;151.182;2023-03-21T08:21:05;20.70;99.90
20803;DHT22;10562;-33.856;151.182;2023-03-21T08:23:35;20.70;99.90
20803;DHT22;10562;-33.856;151.182;2023-03-21T08:26:06;20.70;99.90
20803;DHT22;10562;-33.856;151.182;2023-03-21T08:28:39;20.70;99.90
20803;DHT22;10562;-33.856;151.182;2023-03-21T08:31:11;20.70;99.90
20803;DHT22;10562;-33.856;151.182;2023-03-21T08:33:42;20.60;99.90
20803;DHT22;10562;-33.856;151.182;2023-03-21T08:36:13;20.60;99.90
20803;DHT22;10562;-33.856;151.182;2023-03-21T08:38:44;20.60;99.90
20803;DHT22;10562;-33.856;151.182;2023-03-21T08:41:15;20.70;99.90
20803;DHT22;10562;-33.856;151.182;2023-03-21T08:43:49;20.80;99.90
20803;DHT22;10562;-33.856;151.182;2023-03-21T08:46:20;20.80;99.90
20803;DHT22;10562;-33.856;151.182;2023-03-21T08:48:50;20.80;99.90
20803;DHT22;10562;-33.856;151.182;2023-03-21T08:51:21;20.80;99.90
20803;DHT22;10562;-33.856;151.182;2023-03-21T08:53:52;20.70;99.90
20803;DHT22;10562;-33.856;151.182;2023-03-21T08:56:23;20.70;99.90
20803;DHT22;10562;-33.856;151.182;2023-03-21T08:58:56;20.70;99.90
20803;DHT22;10562;-33.856;151.182;2023-03-21T09:01:29;20.60;99.90
20803;DHT22;10562;-33.856;151.182;2023-03-21T09:04:00;20.60;99.90
20803;DHT22;10562;-33.856;151.182;2023-03-21T09:06:31;20.60;99.90
20803;DHT22;10562;-33.856;151.182;2023-03-21T09:09:02;20.60;99.90
20803;DHT22;10562;-33.856;151.182;2023-03-21T09:11:34;20.50;99.90
20803;DHT22;10562;-33.856;151.182;2023-03-21T09:14:07;20.60;99.90
20803;DHT22;10562;-33.856;151.182;2023-03-21T09:16:38;20.60;99.90
20803;DHT22;10562;-33.856;151.182;2023-03-21T09:19:09;20.60;99.90
20803;DHT22;10562;-33.856;151.182;2023-03-21T09:21:40;20.60;99.90
20803;DHT22;10562;-33.856;151.182;2023-03-21T09:24:11;20.70;99.90
20803;DHT22;10562;-33.856;151.182;2023-03-21T09:26:42;20.80;99.90
20803;DHT22;10562;-33.856;151.182;2023-03-21T09:29:15;20.80;99.90
20803;DHT22;10562;-33.856;151.182;2023-03-21T09:31:46;20.70;99.90
20803;DHT22;10562;-33.856;151.182;2023-03-21T09:34:18;20.70;99.90
20803;DHT22;10562;-33.856;151.182;2023-03-21T09:36:49;20.60;99.90
20803;DHT22;10562;-33.856;151.182;2023-03-21T09:39:23;20.60;99.90
20803;DHT22;10562;-33.856;151.182;2023-03-21T09:42:16;20.60;99.90
20803;DHT22;10562;-33.856;151.182;2023-03-21T09:45:01;20.50;99.90
20803;DHT22;10562;-33.856;151.182;2023-03-21T09:47:39;20.60;99.90
20803;DHT22;10562;-33.856;151.182;2023-03-21T09:50:14;20.60;99.90
20803;DHT22;10562;-33.856;151.182;2023-03-21T09:52:48;20.50;99.90
20803;DHT22;10562;-33.856;151.182;2023-03-21T09:55:22;20.50;99.90
20803;DHT22;10562;-33.856;151.182;2023-03-21T09:58:03;20.50;99.90
20803;DHT22;10562;-33.856;151.182;2023-03-21T10:00:38;20.60;99.90
20803;DHT22;10562;-33.856;151.182;2023-03-21T10:03:18;20.60;99.90
20803;DHT22;10562;-33.856;151.182;2023-03-21T10:05:51;20.60;99.90
20803;DHT22;10562;-33.856;151.182;2023-03-21T10:08:26;20.60;99.90
20803;DHT22;10562;-33.856;151.182;2023-03-21T10:11:01;20.60;99.90
20803;DHT22;10562;-33.856;151.182;2023-03-21T10:13:34;20.60;99.90
20803;DHT22;10562;-33.856;151.182;2023-03-21T10:16:12;20.60;99.90
20803;DHT22;10562;-33.856;151.182;2023-03-21T10:18:44;20.70;99.90
20803;DHT22;10562;-33.856;151.182;2023-03-21T10:21:20;20.70;99.90
20803;DHT22;10562;-33.856;151.182;2023-03-21T10:23:53;20.70;99.90
20803;DHT22;10562;-33.856;151.182;2023-03-21T10:26:26;20.70;99.90
20803;DHT22;10562;-33.856;151.182;2023-03-21T10:28:59;20.60;99.90
20803;DHT22;10562;-33.856;151.182;2023-03-21T10:31:33;20.60;99.90
20803;DHT22;10562;-33.856;151.182;2023-03-21T10:34:16;20.60;99.90
20803;DHT22;10562;-33.856;151.182;2023-03-21T10:36:48;20.50;99.90
20803;DHT22;10562;-33.856;151.182;2023-03-21T10:39:26;20.40;99.90
20803;DHT22;10562;-33.856;151.182;2023-03-21T10:41:57;20.40;99.90
20803;DHT22;10562;-33.856;151.182;2023-03-21T10:44:30;20.40;99.90
20803;DHT22;10562;-33.856;151.182;2023-03-21T10:47:07;20.40;99.90
20803;DHT22;10562;-33.856;151.182;2023-03-21T10:49:38;20.50;99.90
20803;DHT22;10562;-33.856;151.182;2023-03-21T10:52:10;20.50;99.90
20803;DHT22;10562;-33.856;151.182;2023-03-21T10:54:43;20.60;99.90
20803;DHT22;10562;-33.856;151.182;2023-03-21T10:57:18;20.70;99.90
20803;DHT22;10562;-33.856;151.182;2023-03-21T10:59:51;20.60;99.90
20803;DHT22;10562;-33.856;151.182;2023-03-21T11:02:30;20.60;99.90
20803;DHT22;10562;-33.856;151.182;2023-03-21T11:05:05;20.60;99.90
20803;DHT22;10562;-33.856;151.182;2023-03-21T11:07:37;20.60;99.90
20803;DHT22;10562;-33.856;151.182;2023-03-21T11:10:13;20.60;99.90
20803;DHT22;10562;-33.856;151.182;2023-03-21T11:12:48;20.50;99.90
20803;DHT22;10562;-33.856;151.182;2023-03-21T11:15:27;20.50;99.90
20803;DHT22;10562;-33.856;151.182;2023-03-21T11:18:13;20.50;99.90
20803;DHT22;10562;-33.856;151.182;2023-03-21T11:20:49;20.40;99.90
20803;DHT22;10562;-33.856;151.182;2023-03-21T11:23:22;20.40;99.90
20803;DHT22;10562;-33.856;151.182;2023-03-21T11:25:59;20.40;99.90
20803;DHT22;10562;-33.856;151.182;2023-03-21T11:28:35;20.40;99.90
20803;DHT22;10562;-33.856;151.182;2023-03-21T11:31:07;20.30;99.90
20803;DHT22;10562;-33.856;151.182;2023-03-21T11:33:42;20.30;99.90
20803;DHT22;10562;-33.856;151.182;2023-03-21T11:36:36;20.30;99.90
20803;DHT22;10562;-33.856;151.182;2023-03-21T11:39:27;20.30;99.90
20803;DHT22;10562;-33.856;151.182;2023-03-21T11:41:59;20.30;99.90
20803;DHT22;10562;-33.856;151.182;2023-03-21T11:44:32;20.20;99.90
20803;DHT22;10562;-33.856;151.182;2023-03-21T11:47:03;20.10;99.90
20803;DHT22;10562;-33.856;151.182;2023-03-21T11:49:36;20.10;99.90
20803;DHT22;10562;-33.856;151.182;2023-03-21T11:52:15;20.00;99.90
20803;DHT22;10562;-33.856;151.182;2023-03-21T11:55:23;19.90;99.90
20803;DHT22;10562;-33.856;151.182;2023-03-21T11:58:10;19.90;99.90
20803;DHT22;10562;-33.856;151.182;2023-03-21T12:00:49;19.90;99.90
20803;DHT22;10562;-33.856;151.182;2023-03-21T12:03:49;19.90;99.90
20803;DHT22;10562;-33.856;151.182;2023-03-21T12:06:34;19.90;99.90
20803;DHT22;10562;-33.856;151.182;2023-03-21T12:09:17;20.00;99.90
20803;DHT22;10562;-33.856;151.182;2023-03-21T12:12:00;20.10;99.90
20803;DHT22;10562;-33.856;151.182;2023-03-21T12:14:38;20.20;99.90
20803;DHT22;10562;-33.856;151.182;2023-03-21T12:17:23;20.20;99.90
20803;DHT22;10562;-33.856;151.182;2023-03-21T12:20:30;20.20;99.90
20803;DHT22;10562;-33.856;151.182;2023-03-21T12:23:29;20.30;99.90
20803;DHT22;10562;-33.856;151.182;2023-03-21T12:26:33;20.30;99.90
20803;DHT22;10562;-33.856;151.182;2023-03-21T12:32:28;20.30;99.90
20803;DHT22;10562;-33.856;151.182;2023-03-21T12:35:19;20.20;99.90
20803;DHT22;10562;-33.856;151.182;2023-03-21T12:37:59;20.20;99.90
20803;DHT22;10562;-33.856;151.182;2023-03-21T12:40:56;20.20;99.90
20803;DHT22;10562;-33.856;151.182;2023-03-21T12:43:43;20.20;99.90
20803;DHT22;10562;-33.856;151.182;2023-03-21T12:46:25;20.10;99.90
20803;DHT22;10562;-33.856;151.182;2023-03-21T12:48:59;20.00;99.90
20803;DHT22;10562;-33.856;151.182;2023-03-21T12:51:40;19.90;99.90
20803;DHT22;10562;-33.856;151.182;2023-03-21T12:54:17;19.90;99.90
20803;DHT22;10562;-33.856;151.182;2023-03-21T12:56:58;19.90;99.90
20803;DHT22;10562;-33.856;151.182;2023-03-21T12:59:35;19.90;99.90
20803;DHT22;10562;-33.856;151.182;2023-03-21T13:02:17;19.90;99.90
20803;DHT22;10562;-33.856;151.182;2023-03-21T13:05:04;20.00;99.90
20803;DHT22;10562;-33.856;151.182;2023-03-21T13:07:38;20.10;99.90
20803;DHT22;10562;-33.856;151.182;2023-03-21T13:10:14;20.20;99.90
20803;DHT22;10562;-33.856;151.182;2023-03-21T13:13:04;20.30;99.90
20803;DHT22;10562;-33.856;151.182;2023-03-21T13:15:56;20.30;99.90
20803;DHT22;10562;-33.856;151.182;2023-03-21T13:18:39;20.30;99.90
20803;DHT22;10562;-33.856;151.182;2023-03-21T13:21:17;20.30;99.90
20803;DHT22;10562;-33.856;151.182;2023-03-21T13:24:01;20.40;99.90
20803;DHT22;10562;-33.856;151.182;2023-03-21T13:26:37;20.30;99.90
20803;DHT22;10562;-33.856;151.182;2023-03-21T13:29:22;20.30;99.90
20803;DHT22;10562;-33.856;151.182;2023-03-21T13:31:54;20.30;99.90
20803;DHT22;10562;-33.856;151.182;2023-03-21T13:34:26;20.30;99.90
20803;DHT22;10562;-33.856;151.182;2023-03-21T13:36:57;20.20;99.90
20803;DHT22;10562;-33.856;151.182;2023-03-21T13:39:28;20.20;99.90
20803;DHT22;10562;-33.856;151.182;2023-03-21T13:42:04;20.20;99.90
20803;DHT22;10562;-33.856;151.182;2023-03-21T13:44:40;20.20;99.90
20803;DHT22;10562;-33.856;151.182;2023-03-21T13:47:40;20.20;99.90
20803;DHT22;10562;-33.856;151.182;2023-03-21T13:50:49;20.20;99.90
20803;DHT22;10562;-33.856;151.182;2023-03-21T13:53:32;20.20;99.90
20803;DHT22;10562;-33.856;151.182;2023-03-21T13:56:23;20.20;99.90
20803;DHT22;10562;-33.856;151.182;2023-03-21T13:58:59;20.10;99.90
20803;DHT22;10562;-33.856;151.182;2023-03-21T14:01:37;20.10;99.90
20803;DHT22;10562;-33.856;151.182;2023-03-21T14:04:16;20.00;99.90
20803;DHT22;10562;-33.856;151.182;2023-03-21T14:06:58;20.00;99.90
20803;DHT22;10562;-33.856;151.182;2023-03-21T14:09:34;20.00;99.90
20803;DHT22;10562;-33.856;151.182;2023-03-21T14:12:08;20.00;99.90
20803;DHT22;10562;-33.856;151.182;2023-03-21T14:14:42;20.00;99.90
20803;DHT22;10562;-33.856;151.182;2023-03-21T14:17:20;20.00;99.90
20803;DHT22;10562;-33.856;151.182;2023-03-21T14:19:53;20.00;99.90
20803;DHT22;10562;-33.856;151.182;2023-03-21T14:22:26;20.00;99.90
20803;DHT22;10562;-33.856;151.182;2023-03-21T14:25:00;20.00;99.90
20803;DHT22;10562;-33.856;151.182;2023-03-21T14:27:32;20.00;99.90
20803;DHT22;10562;-33.856;151.182;2023-03-21T14:30:05;20.10;99.90
20803;DHT22;10562;-33.856;151.182;2023-03-21T14:32:38;20.10;99.90
20803;DHT22;10562;-33.856;151.182;2023-03-21T14:35:11;20.20;99.90
20803;DHT22;10562;-33.856;151.182;2023-03-21T14:37:45;20.20;99.90
20803;DHT22;10562;-33.856;151.182;2023-03-21T14:40:21;20.20;99.90
20803;DHT22;10562;-33.856;151.182;2023-03-21T14:42:53;20.10;99.90
20803;DHT22;10562;-33.856;151.182;2023-03-21T14:45:24;20.10;99.90
20803;DHT22;10562;-33.856;151.182;2023-03-21T14:47:57;20.10;99.90
20803;DHT22;10562;-33.856;151.182;2023-03-21T14:50:36;20.10;99.90
20803;DHT22;10562;-33.856;151.182;2023-03-21T14:53:13;20.10;99.90
20803;DHT22;10562;-33.856;151.182;2023-03-21T14:55:46;20.10;99.90
20803;DHT22;10562;-33.856;151.182;2023-03-21T14:58:20;20.00;99.90
20803;DHT22;10562;-33.856;151.182;2023-03-21T15:00:51;20.00;99.90
20803;DHT22;10562;-33.856;151.182;2023-03-21T15:03:23;20.00;99.90
20803;DHT22;10562;-33.856;151.182;2023-03-21T15:05:55;20.00;99.90
20803;DHT22;10562;-33.856;151.182;2023-03-21T15:08:29;19.90;99.90
20803;DHT22;10562;-33.856;151.182;2023-03-21T15:11:01;20.00;99.90
20803;DHT22;10562;-33.856;151.182;2023-03-21T15:13:34;19.90;99.90
20803;DHT22;10562;-33.856;151.182;2023-03-21T15:16:06;19.90;99.90
20803;DHT22;10562;-33.856;151.182;2023-03-21T15:18:38;19.90;99.90
20803;DHT22;10562;-33.856;151.182;2023-03-21T15:21:12;20.00;99.90
20803;DHT22;10562;-33.856;151.182;2023-03-21T15:23:47;19.90;99.90
20803;DHT22;10562;-33.856;151.182;2023-03-21T15:26:20;19.80;99.90
20803;DHT22;10562;-33.856;151.182;2023-03-21T15:28:54;19.80;99.90
20803;DHT22;10562;-33.856;151.182;2023-03-21T15:31:28;19.80;99.90
20803;DHT22;10562;-33.856;151.182;2023-03-21T15:33:59;19.80;99.90
20803;DHT22;10562;-33.856;151.182;2023-03-21T15:36:33;19.90;99.90
20803;DHT22;10562;-33.856;151.182;2023-03-21T15:39:10;19.80;99.90
20803;DHT22;10562;-33.856;151.182;2023-03-21T15:41:55;19.80;99.90
20803;DHT22;10562;-33.856;151.182;2023-03-21T15:44:27;19.80;99.90